Wombwell, United Kingdom
Current Conditions -  °F | °C
As of 3:20 PM on Friday 28 Nov 2014 (Local Time) from EGCN Reporting Station
Overcast Overcast  
Wind Chill: 11°   Ceiling: 600
Heat Index: 11°   Visibility: 5mi
Dew Point: 10°   Wind: 9mph
Humidity: 94%   Direction: 90°E
Pressure: 29.77"   Gusts: NA
Location:  53.52°N, 1.4°W
Report Text: EGCN 281520Z 09008KT 8000 OVC006 11/10 Q1008
Loading
Personal Weather Stations






























Interactive Weather Map New forecast layout! Learn more

10-Day Weather Forecast

Advertisements
Track Severe Weather on mobile